Airport, Ohio
Current Conditions -  °F | °C
As of 10:04 PM on Saturday 20 Dec 2014 (Local Time) from KCVG Reporting Station
Haze Haze  
Wind Chill: 30°   Ceiling: 2300
Heat Index: 30°   Visibility: 5mi
Dew Point: 25°   Wind: 3mph
Humidity: 80%   Direction: 100°E
Pressure: 30.28"   Gusts: NA
Location:  39.0588°N, 84.6513°W
Report Text: KCVG 210304Z 10003KT 5SM HZ SCT012 OVC023 M01/M04 A3028 RMK AO2
Loading
Personal Weather Stations






























Interactive Weather Map New forecast layout! Learn more

10-Day Weather Forecast

Advertisements
Track Severe Weather on mobile